ストックホルム/アーランダ の空港の天気 - METARとTAF

ストックホルム・アーランダ空港 ( ESSA / ARN ) - スウェーデン ストックホルム
飛行場実況気象(Metar)
観測時間02/17 23:50 CET (02/17 22:50 UTC)
風向・風速南東 3m/s
視程10km以上
天気現象
全天の8割程度の雲 雲底高度 730m
気温1℃
湿度69%
気圧1020hPa
METARESSA 172250Z 14006KT 9999 BKN024 01/M04 Q1020 R01L/19//95 R08/19//95 R01R/19//95 NOSIG
過去の天気等 Google飛行場航空写真 Wunderground天気予報

過去48時間のMETAR

飛行場予報(TAF)
発表時間: 2/17 18:30 CET (2/17 17:30 UTC)
予報対象時間: 17日19時 CET ~ 18日19時 CET
風向・風速不定 1m/s
視程10km以上
なし
18日0時 CET ~ 18日2時 CET に徐々に
全天の8割程度の雲 雲底高度 240m
18日2時 CET から 確率 40% で
視程300m
天気現象
全天を覆う雲 鉛直視程 60m
18日7時 CET ~ 18日9時 CET に徐々に
視程10km以上
全天の4割程度の雲 雲底高度 240m
全天の8割程度の雲 雲底高度 460m
18日9時 CET から 確率 40% で
全天の8割程度の雲 雲底高度 240m
TAF ESSA 171730Z 1718/1818 VRB02KT CAVOK
BECMG 1723/1801 BKN008
PROB40 1801/1806 0300 FG VV002
BECMG 1806/1808 9999 SCT008 BKN015
PROB40 1808/1814 BKN008